createdAt,value
2022-08-17T00:00:04.777Z,3.37
2022-08-17T00:02:56.294Z,3.30
2022-08-17T00:05:24.041Z,3.95
2022-08-17T00:07:51.605Z,2.92
2022-08-17T00:10:19.487Z,3.62
2022-08-17T00:12:47.220Z,3.47
2022-08-17T00:15:15.078Z,3.95
2022-08-17T00:17:42.774Z,3.42
2022-08-17T00:20:12.124Z,4.10
2022-08-17T00:22:39.479Z,3.05
2022-08-17T00:25:12.011Z,3.60
2022-08-17T00:27:39.897Z,3.70
2022-08-17T00:30:10.327Z,3.70
2022-08-17T00:33:14.033Z,3.75
2022-08-17T00:35:27.875Z,3.53
2022-08-17T00:37:55.400Z,3.50
2022-08-17T00:40:24.715Z,3.83
2022-08-17T00:42:53.386Z,3.70
2022-08-17T00:45:22.020Z,4.00
2022-08-17T00:47:49.569Z,4.05
2022-08-17T00:50:18.862Z,3.90
2022-08-17T00:52:52.049Z,3.40
2022-08-17T00:55:20.110Z,3.75
2022-08-17T00:57:55.080Z,3.95
2022-08-17T01:00:31.919Z,3.58
2022-08-17T01:03:04.220Z,3.97
2022-08-17T01:05:34.109Z,3.72
2022-08-17T01:08:02.538Z,4.15
2022-08-17T01:10:59.457Z,3.58
2022-08-17T01:13:41.796Z,3.55
2022-08-17T01:16:20.672Z,3.75
2022-08-17T01:18:51.167Z,3.78
2022-08-17T01:21:24.191Z,4.28
2022-08-17T01:23:51.868Z,3.92
2022-08-17T01:26:19.433Z,4.35
2022-08-17T01:28:55.404Z,3.58
2022-08-17T01:31:25.421Z,3.72
2022-08-17T01:33:52.950Z,3.85
2022-08-17T01:36:20.648Z,3.72
2022-08-17T01:38:48.326Z,3.83
2022-08-17T01:41:16.797Z,4.10
2022-08-17T01:44:10.564Z,3.87
2022-08-17T01:46:38.283Z,4.22
2022-08-17T01:49:08.470Z,4.18
2022-08-17T01:51:35.884Z,3.97
2022-08-17T01:54:06.408Z,3.95
2022-08-17T01:56:35.896Z,3.78
2022-08-17T01:59:04.243Z,4.05
2022-08-17T02:01:33.693Z,3.92
2022-08-17T02:04:02.202Z,3.90
2022-08-17T02:06:45.303Z,4.43
2022-08-17T02:09:25.590Z,4.03
2022-08-17T02:11:55.184Z,4.10
2022-08-17T02:14:24.935Z,3.92
2022-08-17T02:16:53.103Z,4.20
2022-08-17T02:19:21.796Z,3.85
2022-08-17T02:21:51.491Z,4.10
2022-08-17T02:24:58.475Z,4.07
2022-08-17T02:27:14.229Z,3.80
2022-08-17T02:29:41.695Z,3.80
2022-08-17T02:32:20.818Z,4.07
2022-08-17T02:34:58.843Z,4.10
2022-08-17T02:37:27.552Z,4.22
2022-08-17T02:39:57.161Z,4.62
2022-08-17T02:42:39.664Z,4.20
2022-08-17T02:45:12.195Z,4.60
2022-08-17T02:47:40.239Z,4.70
2022-08-17T02:50:09.661Z,4.50
2022-08-17T02:53:01.966Z,3.83
2022-08-17T02:55:30.585Z,4.18
2022-08-17T02:57:57.985Z,4.82
2022-08-17T03:00:33.851Z,4.18
2022-08-17T03:03:04.198Z,4.45
2022-08-17T03:05:33.309Z,4.10
2022-08-17T03:08:01.100Z,4.35
2022-08-17T03:10:29.711Z,5.25
2022-08-17T03:12:57.463Z,4.87
2022-08-17T03:15:27.370Z,4.47
2022-08-17T03:17:56.680Z,4.65
2022-08-17T03:20:25.856Z,5.12
2022-08-17T03:22:55.167Z,4.43
2022-08-17T03:25:33.502Z,4.43
2022-08-17T03:28:02.645Z,4.85
2022-08-17T03:30:30.601Z,4.95
2022-08-17T03:33:00.128Z,4.68
2022-08-17T03:35:30.543Z,4.45
2022-08-17T03:38:00.915Z,4.60
2022-08-17T03:40:34.616Z,4.72
2022-08-17T03:43:17.661Z,4.80
2022-08-17T03:46:04.261Z,4.87
2022-08-17T03:48:52.183Z,5.35
2022-08-17T03:51:41.669Z,4.72
2022-08-17T03:54:28.537Z,4.80
2022-08-17T03:57:09.898Z,4.68
2022-08-17T03:59:38.400Z,4.70
2022-08-17T04:02:11.088Z,5.60
2022-08-17T04:07:06.167Z,4.80
2022-08-17T04:09:33.817Z,5.40
2022-08-17T04:12:04.656Z,5.18
2022-08-17T04:14:36.433Z,5.53
2022-08-17T04:17:17.069Z,5.20
2022-08-17T04:19:45.800Z,5.15
2022-08-17T04:22:31.073Z,4.97
2022-08-17T04:25:20.026Z,5.57
2022-08-17T04:27:48.701Z,5.15
2022-08-17T04:30:16.960Z,5.47
2022-08-17T04:33:05.367Z,5.40
2022-08-17T04:35:41.225Z,5.12
2022-08-17T04:38:10.525Z,5.47
2022-08-17T04:40:57.150Z,5.47
2022-08-17T04:43:26.212Z,5.28
2022-08-17T04:45:57.299Z,5.10
2022-08-17T04:48:35.956Z,5.82
2022-08-17T04:51:15.722Z,5.72
2022-08-17T04:53:45.264Z,5.18
2022-08-17T04:56:16.889Z,5.43
2022-08-17T04:58:49.826Z,5.30
2022-08-17T05:01:23.133Z,5.40
2022-08-17T05:03:54.351Z,5.40
2022-08-17T05:06:22.756Z,4.97
2022-08-17T05:08:50.123Z,5.00
2022-08-17T05:11:18.001Z,5.70
2022-08-17T05:13:45.608Z,5.07
2022-08-17T05:16:12.979Z,5.25
2022-08-17T05:18:40.300Z,5.18
2022-08-17T05:21:08.111Z,5.43
2022-08-17T05:23:42.958Z,5.25
2022-08-17T05:26:25.503Z,5.57
2022-08-17T05:28:59.841Z,5.28
2022-08-17T05:31:29.354Z,6.35
2022-08-17T05:33:57.016Z,5.60
2022-08-17T05:36:42.985Z,5.60
2022-08-17T05:39:16.292Z,5.25
2022-08-17T05:41:46.536Z,5.78
2022-08-17T05:44:14.691Z,6.03
2022-08-17T05:46:43.950Z,5.40
2022-08-17T05:49:11.931Z,5.43
2022-08-17T05:51:48.598Z,5.03
2022-08-17T05:54:34.325Z,5.65
2022-08-17T05:57:12.492Z,5.80
2022-08-17T05:59:48.551Z,5.70
2022-08-17T06:02:31.268Z,5.30
2022-08-17T06:05:11.076Z,5.93
2022-08-17T06:07:45.180Z,5.22
2022-08-17T06:10:23.698Z,5.37
2022-08-17T06:13:15.990Z,5.35
2022-08-17T06:15:58.658Z,5.15
2022-08-17T06:18:29.804Z,4.45
2022-08-17T06:21:00.913Z,5.47
2022-08-17T06:23:41.161Z,5.03
2022-08-17T06:26:14.412Z,5.43
2022-08-17T06:28:49.441Z,4.72
2022-08-17T06:31:23.154Z,5.35
2022-08-17T06:33:50.565Z,5.07
2022-08-17T06:36:30.206Z,5.32
2022-08-17T06:39:16.381Z,5.00
2022-08-17T06:42:02.809Z,5.15
2022-08-17T06:44:42.320Z,5.00
2022-08-17T06:47:30.026Z,5.10
2022-08-17T06:50:20.960Z,5.12
2022-08-17T06:53:17.888Z,4.90
2022-08-17T06:55:49.813Z,4.65
2022-08-17T06:58:21.648Z,4.75
2022-08-17T07:00:55.314Z,4.68
2022-08-17T07:03:33.325Z,4.47
2022-08-17T07:06:17.553Z,5.25
2022-08-17T07:09:02.429Z,5.20
2022-08-17T07:11:55.111Z,4.95
2022-08-17T07:14:50.082Z,4.90
2022-08-17T07:17:18.540Z,4.62
2022-08-17T07:19:48.595Z,4.50
2022-08-17T07:22:21.691Z,4.80
2022-08-17T07:24:58.311Z,4.65
2022-08-17T07:27:31.388Z,4.70
2022-08-17T07:30:11.732Z,5.00
2022-08-17T07:32:42.987Z,4.30
2022-08-17T07:35:20.005Z,4.65
2022-08-17T07:37:56.063Z,5.20
2022-08-17T07:40:27.987Z,5.00
2022-08-17T07:43:21.912Z,5.43
2022-08-17T07:46:16.645Z,4.40
2022-08-17T07:48:49.579Z,4.60
2022-08-17T07:51:20.933Z,5.22
2022-08-17T07:53:48.705Z,5.10
2022-08-17T07:56:34.792Z,4.65
2022-08-17T07:59:23.026Z,4.45
2022-08-17T08:01:57.927Z,4.62
2022-08-17T08:04:50.029Z,4.97
2022-08-17T08:07:17.818Z,4.25
2022-08-17T08:09:59.615Z,4.27
2022-08-17T08:12:40.011Z,4.85
2022-08-17T08:15:14.127Z,4.60
2022-08-17T08:17:50.511Z,4.85
2022-08-17T08:20:37.761Z,4.30
2022-08-17T08:23:12.019Z,4.82
2022-08-17T08:25:59.363Z,4.25
2022-08-17T08:28:44.496Z,4.50
2022-08-17T08:31:14.961Z,4.53
2022-08-17T08:34:58.785Z,4.18
2022-08-17T08:37:19.294Z,4.35
2022-08-17T08:40:11.386Z,4.22
2022-08-17T08:43:16.560Z,4.45
2022-08-17T08:46:19.735Z,3.85
2022-08-17T08:49:45.072Z,3.85
2022-08-17T08:52:34.063Z,3.97
2022-08-17T08:55:24.175Z,4.12
2022-08-17T08:58:03.200Z,3.95
2022-08-17T09:00:35.822Z,3.92
2022-08-17T09:03:31.583Z,3.60
2022-08-17T09:06:33.223Z,3.35
2022-08-17T09:09:36.191Z,3.28
2022-08-17T09:12:09.807Z,3.67
2022-08-17T09:14:57.763Z,3.30
2022-08-17T09:17:35.725Z,3.30
2022-08-17T09:20:27.658Z,3.80
2022-08-17T09:23:07.075Z,3.70
2022-08-17T09:25:49.790Z,3.62
2022-08-17T09:28:20.261Z,3.83
2022-08-17T09:30:50.801Z,3.70
2022-08-17T09:33:26.909Z,3.92
2022-08-17T09:35:58.599Z,3.30
2022-08-17T09:38:44.375Z,3.67
2022-08-17T09:41:22.404Z,3.65
2022-08-17T09:44:02.754Z,3.83
2022-08-17T09:46:38.991Z,3.62
2022-08-17T09:49:10.206Z,4.10
2022-08-17T09:51:49.073Z,3.92
2022-08-17T09:54:42.258Z,3.95
2022-08-17T09:57:40.411Z,3.28
2022-08-17T10:00:17.369Z,3.40
2022-08-17T10:03:10.156Z,3.83
2022-08-17T10:05:46.290Z,4.05
2022-08-17T10:08:36.110Z,3.95
2022-08-17T10:11:33.425Z,4.10
2022-08-17T10:14:37.607Z,3.60
2022-08-17T10:17:19.569Z,3.62
2022-08-17T10:19:59.293Z,3.15
2022-08-17T10:22:53.278Z,3.83
2022-08-17T10:25:54.502Z,3.42
2022-08-17T10:28:29.825Z,4.10
2022-08-17T10:31:30.758Z,4.43
2022-08-17T10:34:07.424Z,3.92
2022-08-17T10:36:48.266Z,3.97
2022-08-17T10:39:50.518Z,3.00
2022-08-17T10:42:46.057Z,3.62
2022-08-17T10:45:26.345Z,2.90
2022-08-17T10:48:05.234Z,3.20
2022-08-17T10:51:02.030Z,3.55
2022-08-17T10:53:32.451Z,3.25
2022-08-17T10:56:11.916Z,3.17
2022-08-17T10:59:00.594Z,3.62
2022-08-17T11:01:33.936Z,3.65
2022-08-17T11:04:08.764Z,3.33
2022-08-17T11:06:38.837Z,3.85
2022-08-17T11:09:28.786Z,3.97
2022-08-17T11:12:07.169Z,4.30
2022-08-17T11:15:01.769Z,4.00
2022-08-17T11:17:38.877Z,4.07
2022-08-17T11:20:24.091Z,4.15
2022-08-17T11:23:13.304Z,4.12
2022-08-17T11:25:45.019Z,3.90
2022-08-17T11:30:48.600Z,3.90
2022-08-17T11:33:38.035Z,3.90
2022-08-17T11:36:14.667Z,4.15
2022-08-17T11:38:47.928Z,3.60
2022-08-17T11:41:33.696Z,4.07
2022-08-17T11:44:32.554Z,3.87
2022-08-17T11:48:02.470Z,3.67
2022-08-17T11:51:05.419Z,4.20
2022-08-17T11:53:39.121Z,3.80
2022-08-17T11:56:31.730Z,3.85
2022-08-17T11:59:00.659Z,3.17
2022-08-17T12:01:28.941Z,3.22
2022-08-17T12:04:16.393Z,3.70
2022-08-17T12:06:48.679Z,3.40
2022-08-17T12:09:26.249Z,3.47
2022-08-17T12:12:12.627Z,3.22
2022-08-17T12:17:40.658Z,3.10
2022-08-17T12:20:21.417Z,3.20
2022-08-17T12:23:05.429Z,2.62
2022-08-17T12:25:56.694Z,3.08
2022-08-17T12:28:27.356Z,2.80
2022-08-17T12:30:58.610Z,3.00
2022-08-17T12:33:28.921Z,2.70
2022-08-17T12:36:08.655Z,2.65
2022-08-17T12:38:37.418Z,3.10
2022-08-17T12:41:25.755Z,2.97
2022-08-17T12:44:21.419Z,2.87
2022-08-17T12:46:53.329Z,3.08
2022-08-17T12:49:22.822Z,2.53
2022-08-17T12:51:51.790Z,2.80
2022-08-17T12:54:27.350Z,2.40
2022-08-17T12:56:55.249Z,2.80
2022-08-17T12:59:29.769Z,2.62
2022-08-17T13:01:59.514Z,2.87
2022-08-17T13:04:29.536Z,2.60
2022-08-17T13:06:59.734Z,2.80
2022-08-17T13:09:35.630Z,2.70
2022-08-17T13:12:07.812Z,2.90
2022-08-17T13:14:35.607Z,2.70
2022-08-17T13:17:08.570Z,2.50
2022-08-17T13:19:48.527Z,2.83
2022-08-17T13:22:15.876Z,2.85
2022-08-17T13:24:58.720Z,2.42
2022-08-17T13:27:27.778Z,2.50
2022-08-17T13:29:59.618Z,2.60
2022-08-17T13:32:46.345Z,2.40
2022-08-17T13:35:34.481Z,2.78
2022-08-17T13:38:17.001Z,2.20
2022-08-17T13:40:45.861Z,2.30
2022-08-17T13:43:44.747Z,2.75
2022-08-17T13:46:21.134Z,2.60
2022-08-17T13:49:06.152Z,2.80
2022-08-17T13:51:36.380Z,2.65
2022-08-17T13:54:06.018Z,2.97
2022-08-17T13:56:39.780Z,2.75
2022-08-17T13:59:53.500Z,2.85
2022-08-17T14:02:25.967Z,2.40
2022-08-17T14:04:56.999Z,2.72
2022-08-17T14:07:31.536Z,2.87
2022-08-17T14:10:03.979Z,3.10
2022-08-17T14:12:33.612Z,2.75
2022-08-17T14:15:02.212Z,2.67
2022-08-17T14:17:34.945Z,2.75
2022-08-17T14:20:09.480Z,2.90
2022-08-17T14:22:39.359Z,2.65
2022-08-17T14:25:08.673Z,2.97
2022-08-17T14:27:51.936Z,3.00
2022-08-17T14:30:23.854Z,2.83
2022-08-17T14:32:52.102Z,3.10
2022-08-17T14:35:22.533Z,2.85
2022-08-17T14:37:51.792Z,2.50
2022-08-17T14:40:20.826Z,3.17
2022-08-17T14:42:48.330Z,3.03
2022-08-17T14:45:30.336Z,3.00
2022-08-17T14:48:03.962Z,2.70
2022-08-17T14:50:32.059Z,2.40
2022-08-17T14:53:04.397Z,3.03
2022-08-17T14:55:32.669Z,2.42
2022-08-17T14:58:00.074Z,2.87
2022-08-17T15:00:28.385Z,2.40
2022-08-17T15:02:58.198Z,2.67
2022-08-17T15:05:33.467Z,2.53
2022-08-17T15:08:02.186Z,2.42
2022-08-17T15:10:30.352Z,2.50
2022-08-17T15:12:58.122Z,2.83
2022-08-17T15:15:26.528Z,2.80
2022-08-17T15:17:54.310Z,2.30
2022-08-17T15:20:25.055Z,2.50
2022-08-17T15:22:56.044Z,2.78
2022-08-17T15:25:27.451Z,2.60
2022-08-17T15:27:55.894Z,2.45
2022-08-17T15:30:25.613Z,2.45
2022-08-17T15:32:55.268Z,2.28
2022-08-17T15:35:28.234Z,3.08
2022-08-17T15:37:57.958Z,2.85
2022-08-17T15:40:25.586Z,2.85
2022-08-17T15:42:52.975Z,2.35
2022-08-17T15:45:24.512Z,2.55
2022-08-17T15:47:53.311Z,2.70
2022-08-17T15:50:21.094Z,2.42
2022-08-17T15:52:54.732Z,2.67
2022-08-17T15:55:24.293Z,2.30
2022-08-17T15:57:52.255Z,2.30
2022-08-17T16:00:20.561Z,2.58
2022-08-17T16:03:22.920Z,2.20
2022-08-17T16:05:35.987Z,2.60
2022-08-17T16:08:04.723Z,2.20
2022-08-17T16:10:33.948Z,2.37
2022-08-17T16:13:04.080Z,2.60
2022-08-17T16:15:32.162Z,2.17
2022-08-17T16:17:59.629Z,1.98
2022-08-17T16:20:27.357Z,2.45
2022-08-17T16:22:55.460Z,2.20
2022-08-17T16:25:52.367Z,2.35
2022-08-17T16:28:16.488Z,2.17
2022-08-17T16:30:44.127Z,2.30
2022-08-17T16:33:12.395Z,2.10
2022-08-17T16:35:41.956Z,2.30
2022-08-17T16:38:09.578Z,2.35
2022-08-17T16:40:37.237Z,2.10
2022-08-17T16:43:10.396Z,2.33
2022-08-17T16:45:40.367Z,1.98
2022-08-17T16:48:09.296Z,2.22
2022-08-17T16:50:37.320Z,1.92
2022-08-17T16:53:10.584Z,2.58
2022-08-17T16:55:38.742Z,1.92
2022-08-17T16:58:06.770Z,2.40
2022-08-17T17:00:34.676Z,2.50
2022-08-17T17:03:21.108Z,2.42
2022-08-17T17:05:57.685Z,2.22
2022-08-17T17:08:46.731Z,2.12
2022-08-17T17:11:18.748Z,2.45
2022-08-17T17:13:53.968Z,2.50
2022-08-17T17:16:53.030Z,2.37
2022-08-17T17:19:35.549Z,2.70
2022-08-17T17:22:26.248Z,2.30
2022-08-17T17:25:09.224Z,2.40
2022-08-17T17:27:56.121Z,2.17
2022-08-17T17:30:27.586Z,2.35
2022-08-17T17:32:59.648Z,2.62
2022-08-17T17:35:32.046Z,2.15
2022-08-17T17:38:07.917Z,2.50
2022-08-17T17:40:39.468Z,2.60
2022-08-17T17:43:35.238Z,2.40
2022-08-17T17:46:27.997Z,2.47
2022-08-17T17:48:57.593Z,2.60
2022-08-17T17:52:03.618Z,2.85
2022-08-17T17:54:52.512Z,2.85
2022-08-17T17:57:33.215Z,2.55
2022-08-17T18:00:23.546Z,2.75
2022-08-17T18:03:12.469Z,3.08
2022-08-17T18:05:52.594Z,2.70
2022-08-17T18:08:38.897Z,2.67
2022-08-17T18:11:25.574Z,2.83
2022-08-17T18:14:29.468Z,3.08
2022-08-17T18:16:59.247Z,3.12
2022-08-17T18:19:28.881Z,2.97
2022-08-17T18:22:06.728Z,2.87
2022-08-17T18:24:37.984Z,3.10
2022-08-17T18:27:19.652Z,3.08
2022-08-17T18:32:31.377Z,2.78
2022-08-17T18:35:04.674Z,2.65
2022-08-17T18:37:34.578Z,2.80
2022-08-17T18:40:36.056Z,2.70
2022-08-17T18:43:13.750Z,3.10
2022-08-17T18:45:42.752Z,2.92
2022-08-17T18:48:36.524Z,3.10
2022-08-17T18:51:39.809Z,2.78
2022-08-17T18:54:22.507Z,3.17
2022-08-17T18:56:54.650Z,3.05
2022-08-17T18:59:27.531Z,2.90
2022-08-17T19:02:24.260Z,2.70
2022-08-17T19:05:00.676Z,3.40
2022-08-17T19:07:34.384Z,3.20
2022-08-17T19:10:17.368Z,3.42
2022-08-17T19:12:53.040Z,3.20
2022-08-17T19:15:34.769Z,3.40
2022-08-17T19:18:16.457Z,2.73
2022-08-17T19:20:47.944Z,2.67
2022-08-17T19:25:48.722Z,3.00
2022-08-17T19:31:04.860Z,3.70
2022-08-17T19:33:32.588Z,3.15
2022-08-17T19:36:02.751Z,2.62
2022-08-17T19:39:08.808Z,3.12
2022-08-17T19:41:43.716Z,3.15
2022-08-17T19:44:39.356Z,3.25
2022-08-17T19:47:43.113Z,2.83
2022-08-17T19:52:42.995Z,2.60
2022-08-17T19:55:35.820Z,2.30
2022-08-17T19:58:25.355Z,2.70
2022-08-17T20:00:53.175Z,2.78
2022-08-17T20:03:35.727Z,2.90
2022-08-17T20:06:13.847Z,2.67
2022-08-17T20:09:05.197Z,3.00
2022-08-17T20:11:43.891Z,3.00
2022-08-17T20:14:20.844Z,2.83
2022-08-17T20:16:48.286Z,3.05
2022-08-17T20:20:19.641Z,2.95
2022-08-17T20:22:55.066Z,3.20
2022-08-17T20:25:30.882Z,3.35
2022-08-17T20:28:06.375Z,3.17
2022-08-17T20:30:42.739Z,2.90
2022-08-17T20:33:36.748Z,3.55
2022-08-17T20:36:12.783Z,3.00
2022-08-17T20:38:46.216Z,2.65
2022-08-17T20:41:17.101Z,2.42
2022-08-17T20:43:58.822Z,2.78
2022-08-17T20:48:59.692Z,3.00
2022-08-17T20:51:39.431Z,2.95
2022-08-17T20:54:27.215Z,2.85
2022-08-17T20:56:57.218Z,2.47
2022-08-17T20:59:25.673Z,2.87
2022-08-17T21:02:06.632Z,2.90
2022-08-17T21:04:51.280Z,2.97
2022-08-17T21:07:42.990Z,3.50
2022-08-17T21:10:15.216Z,3.25
2022-08-17T21:12:59.600Z,2.50
2022-08-17T21:15:48.461Z,2.78
2022-08-17T21:18:41.697Z,2.53
2022-08-17T21:21:24.480Z,2.65
2022-08-17T21:24:10.378Z,2.72
2022-08-17T21:26:50.602Z,2.37
2022-08-17T21:29:31.309Z,2.80
2022-08-17T21:32:03.432Z,2.30
2022-08-17T21:34:42.454Z,2.65
2022-08-17T21:37:23.528Z,2.83
2022-08-17T21:40:19.619Z,2.62
2022-08-17T21:42:53.930Z,2.40
2022-08-17T21:45:31.334Z,2.37
2022-08-17T21:48:23.876Z,3.05
2022-08-17T21:53:38.180Z,2.25
2022-08-17T21:56:07.444Z,2.30
2022-08-17T21:58:40.087Z,2.58
2022-08-17T22:01:21.627Z,2.45
2022-08-17T22:04:04.035Z,2.62
2022-08-17T22:09:12.340Z,2.78
2022-08-17T22:11:55.785Z,2.33
2022-08-17T22:14:52.326Z,2.78
2022-08-17T22:17:35.963Z,2.80
2022-08-17T22:20:17.361Z,2.47
2022-08-17T22:23:10.864Z,2.85
2022-08-17T22:25:40.862Z,2.60
2022-08-17T22:28:10.989Z,2.67
2022-08-17T22:30:43.935Z,2.62
2022-08-17T22:33:34.297Z,2.60
2022-08-17T22:36:24.884Z,3.00
2022-08-17T22:39:14.529Z,2.75
2022-08-17T22:41:50.740Z,2.47
2022-08-17T22:44:23.552Z,2.53
2022-08-17T22:46:55.478Z,2.45
2022-08-17T22:49:29.228Z,2.75
2022-08-17T22:52:11.111Z,2.40
2022-08-17T22:54:57.119Z,2.30
2022-08-17T22:57:43.634Z,2.72
2022-08-17T23:00:34.053Z,3.35
2022-08-17T23:03:10.559Z,2.50
2022-08-17T23:05:41.853Z,2.62
2022-08-17T23:08:11.472Z,2.60
2022-08-17T23:10:41.336Z,2.55
2022-08-17T23:13:11.905Z,2.50
2022-08-17T23:15:40.533Z,3.05
2022-08-17T23:18:08.132Z,2.62
2022-08-17T23:20:37.703Z,2.35
2022-08-17T23:23:09.016Z,2.53
2022-08-17T23:25:36.924Z,2.40
2022-08-17T23:28:05.976Z,2.72
2022-08-17T23:30:39.851Z,2.92
2022-08-17T23:33:10.329Z,2.75
2022-08-17T23:35:39.759Z,2.58
2022-08-17T23:38:10.396Z,2.70
2022-08-17T23:40:39.622Z,2.40
2022-08-17T23:43:24.060Z,2.90
2022-08-17T23:45:54.564Z,2.87
2022-08-17T23:48:28.632Z,2.47
2022-08-17T23:51:10.979Z,2.60
2022-08-17T23:53:42.045Z,3.10
2022-08-17T23:56:11.091Z,2.50
2022-08-17T23:58:43.379Z,2.75
